Pen Mar, Pennsylvania
Current Conditions -  °F | °C
As of 7:53 PM on Tuesday 21 Oct 2014 (Local Time) from KRYT Reporting Station
Light Rain Light Rain  
Wind Chill: 51°   Ceiling: 6000
Heat Index: 51°   Visibility: 8mi
Dew Point: 47°   Wind: 0mph
Humidity: 86%   Direction: NA
Pressure: 29.88"   Gusts: NA
Location:  39.7777°N, 77.5693°W
Report Text: KRYT 212353Z AUTO 00000KT 8SM -RA OVC060 11/08 A2988 RMK AO2 RAB26 SLP123 P0003 60004 T01060083 10178 20106 51018 $
Loading
Personal Weather Stations






























Interactive Weather Map
Tropical Storm Tracking
New forecast layout! Learn more

10-Day Weather Forecast

Advertisements
Track Severe Weather on mobile